Time;durP1;ratioP1;P1;durP2;ratioP2;P2;SDS_P1;SDS_P2;PMS_P1;PMS_P2;Temp;Humidity;BMP_temperature;BMP_pressure;BME280_temperature;BME280_humidity;BME280_pressure;Samples;Min_cycle;Max_cycle;Signal;HPM_P1;HPM_P2
2021/03/16 00:01:31;;;;;;;9.63;2.90;;;;;;;15.83;40.12;102435.88;4952457;28;115118;-72
2021/03/16 00:04:04;;;;;;;8.35;2.67;;;;;;;15.84;39.92;102444.69;4950594;28;124202;-73
2021/03/16 00:06:45;;;;;;;10.25;3.30;;;;;;;15.82;40.18;102447.38;4935707;28;123603;-76
2021/03/16 00:09:11;;;;;;;11.45;2.92;;;;;;;15.82;40.06;102447.38;4950637;28;114399;-73
2021/03/16 00:11:37;;;;;;;5.75;2.65;;;;;;;15.82;40.08;102452.69;4951767;28;114089;-73
2021/03/16 00:14:03;;;;;;;10.57;3.40;;;;;;;15.83;40.38;102449.13;4951259;28;124065;-72
2021/03/16 00:16:30;;;;;;;12.68;3.13;;;;;;;15.83;40.36;102450.91;4951173;28;123937;-71
2021/03/16 00:18:56;;;;;;;10.73;3.17;;;;;;;15.83;40.35;102450.91;4950445;28;115547;-74
2021/03/16 00:21:22;;;;;;;9.30;2.70;;;;;;;15.83;40.35;102448.25;4950932;28;114906;-72
2021/03/16 00:23:48;;;;;;;9.13;3.60;;;;;;;15.82;40.47;102452.69;4951004;28;124012;-73
2021/03/16 00:26:14;;;;;;;11.90;3.28;;;;;;;15.81;40.22;102455.34;4949166;28;122671;-71
2021/03/16 00:28:40;;;;;;;6.57;2.75;;;;;;;15.83;40.49;102461.50;4950828;28;114370;-73
2021/03/16 00:31:06;;;;;;;10.98;3.50;;;;;;;15.83;40.65;102459.72;4950572;28;114150;-72
2021/03/16 00:33:32;;;;;;;14.55;3.20;;;;;;;15.82;40.40;102468.56;4950935;28;124399;-72
2021/03/16 00:35:58;;;;;;;11.23;2.85;;;;;;;15.81;40.45;102466.81;4951019;28;124128;-74
2021/03/16 00:38:25;;;;;;;10.65;3.20;;;;;;;15.83;40.46;102474.72;4950787;28;114724;-73
2021/03/16 00:40:52;;;;;;;12.60;3.55;;;;;;;15.80;40.58;102475.66;4949690;28;114338;-73
2021/03/16 00:43:18;;;;;;;9.52;2.85;;;;;;;15.81;40.60;102472.13;4949246;28;124186;-72
2021/03/16 00:45:44;;;;;;;10.57;2.97;;;;;;;15.81;40.57;102469.47;4949323;28;122880;-73
2021/03/16 00:48:15;;;;;;;10.07;3.35;;;;;;;15.81;40.57;102477.41;4942685;28;114064;-74
2021/03/16 00:50:41;;;;;;;14.60;3.80;;;;;;;15.82;40.52;102479.16;4938644;28;113054;-74
2021/03/16 00:53:08;;;;;;;8.57;2.65;;;;;;;15.82;40.65;102481.81;4948951;28;123377;-73
2021/03/16 00:55:34;;;;;;;11.70;3.05;;;;;;;15.82;40.81;102475.63;4949779;28;122939;-74
2021/03/16 00:58:02;;;;;;;10.65;3.15;;;;;;;15.83;40.64;102475.59;4950262;28;113203;-73
2021/03/16 01:00:28;;;;;;;9.25;2.80;;;;;;;15.82;40.73;102479.16;4951244;28;114560;-74
2021/03/16 01:02:54;;;;;;;9.40;2.72;;;;;;;15.82;40.71;102473.84;4950241;28;124587;-73
2021/03/16 01:05:21;;;;;;;9.18;3.05;;;;;;;15.81;40.80;102472.13;4950890;28;123951;-74
2021/03/16 01:07:47;;;;;;;12.90;3.47;;;;;;;15.81;40.87;102472.13;4949823;28;115956;-73
2021/03/16 01:10:16;;;;;;;6.95;2.58;;;;;;;15.82;40.59;102478.28;4949308;28;114935;-73
2021/03/16 01:12:43;;;;;;;10.77;3.53;;;;;;;15.80;40.90;102480.97;4950128;28;123978;-73
2021/03/16 01:15:10;;;;;;;9.30;2.78;;;;;;;15.81;40.67;102476.53;4950146;28;123812;-72
2021/03/16 01:17:36;;;;;;;8.55;2.70;;;;;;;15.80;40.86;102473.03;4951324;28;114439;-77
2021/03/16 01:20:17;;;;;;;14.18;3.17;;;;;;;15.80;40.79;102480.97;4950536;28;114156;-72
2021/03/16 01:22:44;;;;;;;9.15;3.00;;;;;;;15.80;40.63;102467.72;4949693;28;124177;-72
2021/03/16 01:25:10;;;;;;;8.65;2.88;;;;;;;15.80;40.60;102472.16;4950548;28;124034;-72
2021/03/16 01:27:36;;;;;;;9.35;2.72;;;;;;;15.80;40.67;102469.50;4950353;28;114424;-74
2021/03/16 01:30:05;;;;;;;17.67;4.20;;;;;;;15.80;40.78;102475.66;4950073;28;113988;-74
2021/03/16 01:32:31;;;;;;;8.43;2.67;;;;;;;15.80;40.82;102478.31;4949804;28;124156;-75
2021/03/16 01:34:57;;;;;;;13.05;2.63;;;;;;;15.80;40.70;102478.31;4950280;28;123747;-76
2021/03/16 01:37:23;;;;;;;13.05;3.33;;;;;;;15.81;40.78;102473.88;4949825;28;114409;-73
2021/03/16 01:39:49;;;;;;;10.38;2.85;;;;;;;15.80;40.75;102478.31;4949643;28;113829;-74
2021/03/16 01:42:16;;;;;;;11.73;3.05;;;;;;;15.79;40.75;102484.50;4949429;28;124082;-73
2021/03/16 01:44:44;;;;;;;9.68;3.03;;;;;;;15.80;40.82;102480.97;4951060;28;122429;-73
2021/03/16 01:47:15;;;;;;;8.55;2.33;;;;;;;15.80;40.88;102482.75;4948398;28;114973;-74
2021/03/16 01:49:42;;;;;;;8.10;2.53;;;;;;;15.79;40.90;102484.50;4932266;28;114234;-74
2021/03/16 01:52:09;;;;;;;8.77;2.55;;;;;;;15.79;40.77;102489.81;4935725;28;125343;-73
2021/03/16 01:54:39;;;;;;;9.40;2.70;;;;;;;15.78;40.82;102482.78;4932882;28;122803;-73
2021/03/16 01:57:06;;;;;;;11.73;2.65;;;;;;;15.80;40.73;102482.75;4933337;28;115336;-73
2021/03/16 01:59:50;;;;;;;7.28;2.60;;;;;;;15.78;40.91;102474.81;4936251;28;116179;-73
2021/03/16 02:02:35;;;;;;;8.07;2.83;;;;;;;15.79;40.70;102475.69;4952977;28;124689;-72
2021/03/16 02:05:19;;;;;;;12.27;3.08;;;;;;;15.79;40.96;102473.94;4952937;28;124440;-73
2021/03/16 02:08:22;;;;;;;8.00;2.67;;;;;;;15.79;40.81;102471.28;4935076;28;115182;-73
2021/03/16 02:11:16;;;;;;;9.38;3.05;;;;;;;15.80;40.81;102472.16;4946388;28;114541;-74
2021/03/16 02:14:30;;;;;;;13.73;2.97;;;;;;;15.79;41.00;102470.41;4952104;28;124782;-74
2021/03/16 02:17:26;;;;;;;10.93;3.20;;;;;;;15.78;40.95;102477.47;4953635;28;124280;-73
2021/03/16 02:20:34;;;;;;;10.43;3.20;;;;;;;15.79;40.69;102470.41;4951867;28;115279;-73
2021/03/16 02:23:25;;;;;;;8.02;2.70;;;;;;;15.78;41.05;102466.88;4952561;28;114912;-74
2021/03/16 02:26:39;;;;;;;11.68;3.28;;;;;;;15.78;40.92;102472.19;4952656;28;125477;-73
2021/03/16 02:29:29;;;;;;;12.95;3.10;;;;;;;15.79;40.76;102475.69;4952651;28;124976;-75
2021/03/16 02:32:21;;;;;;;9.85;3.00;;;;;;;15.79;41.16;102473.94;4952809;28;114850;-75
2021/03/16 02:35:07;;;;;;;7.60;2.58;;;;;;;15.77;40.93;102470.44;4953096;28;114794;-71
2021/03/16 02:37:55;;;;;;;9.82;2.50;;;;;;;15.79;40.98;102473.06;4933427;28;125424;-72
2021/03/16 02:40:41;;;;;;;11.48;2.97;;;;;;;15.78;41.00;102472.19;4940544;28;124613;-71
2021/03/16 02:43:27;;;;;;;9.27;2.55;;;;;;;15.78;41.04;102477.47;4953127;28;114902;-73
2021/03/16 02:46:12;;;;;;;15.23;2.60;;;;;;;15.79;41.00;102483.63;4953858;28;114732;-71
2021/03/16 02:48:58;;;;;;;7.82;2.65;;;;;;;15.78;41.04;102477.47;4952859;28;124738;-72
2021/03/16 02:51:43;;;;;;;8.85;3.00;;;;;;;15.78;41.10;102474.81;4952946;28;125047;-72
2021/03/16 02:54:29;;;;;;;11.30;3.20;;;;;;;15.78;41.15;102481.91;4951648;28;116053;-72
2021/03/16 02:57:16;;;;;;;8.57;3.00;;;;;;;15.78;41.11;102480.13;4952605;28;115746;-74
2021/03/16 03:00:02;;;;;;;8.98;2.60;;;;;;;15.78;41.21;102482.78;4951886;28;125216;-74
2021/03/16 03:02:48;;;;;;;9.63;3.03;;;;;;;15.77;41.18;102478.38;4952158;28;125227;-74
2021/03/16 03:05:34;;;;;;;11.40;3.13;;;;;;;15.77;41.23;102483.69;4952295;28;114924;-72
2021/03/16 03:08:22;;;;;;;6.03;2.50;;;;;;;15.78;41.05;102489.84;4953338;28;115118;-73
2021/03/16 03:11:06;;;;;;;8.73;2.80;;;;;;;15.78;41.13;102490.72;4952031;28;124980;-72
2021/03/16 03:13:51;;;;;;;14.38;3.10;;;;;;;15.77;41.21;102486.31;4952247;28;124811;-74
2021/03/16 03:16:36;;;;;;;11.90;3.05;;;;;;;15.77;41.23;102488.97;4953334;28;114880;-72
2021/03/16 03:19:20;;;;;;;9.18;2.40;;;;;;;15.77;41.20;102491.63;4952923;28;114448;-74
2021/03/16 03:22:29;;;;;;;11.60;3.40;;;;;;;15.78;41.13;102492.50;4951339;28;125046;-74
2021/03/16 03:25:23;;;;;;;7.82;2.40;;;;;;;15.77;41.12;102502.22;4951235;28;124570;-73
2021/03/16 03:28:29;;;;;;;11.88;2.90;;;;;;;15.78;41.19;102500.44;4952978;28;115042;-74
2021/03/16 03:31:15;;;;;;;8.13;2.50;;;;;;;15.77;41.00;102496.03;4952419;28;115427;-74
2021/03/16 03:34:01;;;;;;;6.85;2.38;;;;;;;15.76;41.26;102500.47;4951554;28;124919;-74
2021/03/16 03:36:54;;;;;;;7.57;2.22;;;;;;;15.77;41.11;102496.91;4951694;28;125044;-76
2021/03/16 03:39:39;;;;;;;8.40;2.63;;;;;;;15.76;41.13;102503.09;4952044;28;114987;-73
2021/03/16 03:42:25;;;;;;;11.98;2.35;;;;;;;15.76;41.11;102492.53;4952259;28;114732;-75
2021/03/16 03:45:13;;;;;;;7.30;2.83;;;;;;;15.77;41.25;102490.75;4951833;28;124827;-73
2021/03/16 03:48:00;;;;;;;8.93;2.78;;;;;;;15.76;41.12;102497.81;4944900;28;124641;-72
2021/03/16 03:50:52;;;;;;;10.82;2.63;;;;;;;15.76;41.06;102502.25;4941626;28;115973;-76
2021/03/16 03:53:39;;;;;;;11.95;2.88;;;;;;;15.77;41.13;102510.16;4942480;28;115601;-74
2021/03/16 03:56:24;;;;;;;8.77;2.38;;;;;;;15.76;41.30;102505.75;4931361;28;124797;-75
2021/03/16 03:59:09;;;;;;;10.73;2.92;;;;;;;15.73;40.98;102506.66;4931639;28;125596;-73
2021/03/16 04:01:55;;;;;;;9.15;2.92;;;;;;;15.76;41.14;102503.09;4950542;28;114797;-72
2021/03/16 04:04:40;;;;;;;9.00;2.42;;;;;;;15.74;41.13;102510.19;4934308;28;114936;-72
2021/03/16 04:07:27;;;;;;;11.30;2.85;;;;;;;15.75;41.14;102505.78;4928553;28;124702;-72
2021/03/16 04:10:13;;;;;;;11.90;3.00;;;;;;;15.76;41.12;102511.06;4935469;28;124578;-72
2021/03/16 04:12:58;;;;;;;6.55;1.90;;;;;;;15.75;41.00;102508.44;4950913;28;114890;-73
2021/03/16 04:15:43;;;;;;;8.43;3.15;;;;;;;15.75;41.05;102509.31;4951501;28;115155;-72
2021/03/16 04:18:28;;;;;;;4.90;1.92;;;;;;;15.75;41.31;102513.72;4933731;28;124834;-73
2021/03/16 04:21:14;;;;;;;11.60;2.85;;;;;;;15.75;41.00;102506.66;4943104;28;125074;-72
2021/03/16 04:23:59;;;;;;;9.25;2.30;;;;;;;15.76;40.97;102510.19;4947000;28;114975;-75
2021/03/16 04:26:44;;;;;;;5.93;2.40;;;;;;;15.75;41.04;102508.44;4949976;28;114667;-73
2021/03/16 04:29:29;;;;;;;8.18;2.47;;;;;;;15.75;40.98;102519.91;4949248;28;124595;-72
2021/03/16 04:32:13;;;;;;;7.90;2.72;;;;;;;15.76;41.06;102520.78;4950652;28;124392;-72
2021/03/16 04:34:58;;;;;;;7.82;2.63;;;;;;;15.75;40.97;102522.53;4950737;28;114979;-72
2021/03/16 04:37:42;;;;;;;10.70;2.55;;;;;;;15.75;41.05;102517.25;4934160;28;114623;-73
2021/03/16 04:40:27;;;;;;;8.35;2.33;;;;;;;15.77;41.21;102535.75;4924112;28;125448;-72
2021/03/16 04:43:11;;;;;;;8.45;2.50;;;;;;;15.75;41.23;102522.53;4931081;28;125105;-75
2021/03/16 04:45:56;;;;;;;9.50;3.03;;;;;;;15.77;41.14;102519.88;4931036;28;116211;-71
2021/03/16 04:48:40;;;;;;;6.38;2.33;;;;;;;15.77;41.15;102515.44;4931234;28;115271;-74
2021/03/16 04:51:25;;;;;;;9.00;2.33;;;;;;;15.77;41.17;102523.38;4946027;28;124859;-73
2021/03/16 04:54:09;;;;;;;8.05;2.53;;;;;;;15.76;41.30;102523.41;4950865;28;125275;-74
2021/03/16 04:56:54;;;;;;;12.52;3.00;;;;;;;15.76;41.23;102523.41;4950440;28;114931;-74
2021/03/16 04:59:39;;;;;;;10.07;2.80;;;;;;;15.76;41.31;102523.41;4950409;28;116587;-75
2021/03/16 05:02:24;;;;;;;6.70;2.22;;;;;;;15.76;41.36;102526.94;4950473;28;125357;-76
2021/03/16 05:05:09;;;;;;;6.68;2.15;;;;;;;15.77;41.22;102530.44;4951231;28;124725;-74
2021/03/16 05:07:53;;;;;;;4.95;2.20;;;;;;;15.76;41.08;102537.53;4931433;28;115241;-74
2021/03/16 05:10:38;;;;;;;9.13;2.15;;;;;;;15.75;41.23;102541.06;4930840;28;114642;-76
2021/03/16 05:13:22;;;;;;;14.48;2.17;;;;;;;15.76;41.27;102545.47;4930157;28;125422;-74
2021/03/16 05:16:07;;;;;;;7.38;2.03;;;;;;;15.76;41.17;102547.25;4931542;28;124620;-76
2021/03/16 05:18:52;;;;;;;11.15;2.10;;;;;;;15.76;41.26;102556.06;4930189;28;115090;-73
2021/03/16 05:21:36;;;;;;;18.20;2.47;;;;;;;15.73;41.25;102541.06;4947118;28;114807;-75
2021/03/16 05:24:21;;;;;;;8.88;2.20;;;;;;;15.75;41.09;102540.19;4950370;28;125430;-75
2021/03/16 05:27:06;;;;;;;6.88;2.25;;;;;;;15.76;41.16;102547.25;4950379;28;124690;-75
2021/03/16 05:29:51;;;;;;;8.48;1.95;;;;;;;15.75;41.22;102556.97;4950110;28;114977;-76
2021/03/16 05:32:35;;;;;;;10.82;2.70;;;;;;;15.75;41.01;102550.78;4951567;28;114870;-75
2021/03/16 05:35:20;;;;;;;7.65;2.50;;;;;;;15.74;41.19;102557.81;4950479;28;124693;-74
2021/03/16 05:38:07;;;;;;;8.57;2.13;;;;;;;15.75;41.15;102554.31;4930441;28;124511;-76
2021/03/16 05:40:51;;;;;;;9.55;2.55;;;;;;;15.76;41.14;102557.81;4940257;28;115876;-74
2021/03/16 05:43:36;;;;;;;6.45;2.15;;;;;;;15.76;41.23;102564.00;4950747;28;115917;-74
2021/03/16 05:46:21;;;;;;;8.43;2.45;;;;;;;15.76;41.18;102556.06;4950159;28;124853;-72
2021/03/16 05:49:07;;;;;;;10.68;3.05;;;;;;;15.77;41.20;102556.94;4934739;28;124695;-73
2021/03/16 05:51:52;;;;;;;6.80;1.95;;;;;;;15.77;41.20;102565.75;4948540;28;115348;-71
2021/03/16 05:54:37;;;;;;;9.98;2.42;;;;;;;15.76;41.19;102561.34;4940480;28;114837;-72
2021/03/16 05:57:22;;;;;;;7.82;2.38;;;;;;;15.78;41.22;102572.78;4926808;28;125311;-72
2021/03/16 06:00:10;;;;;;;7.68;2.53;;;;;;;15.76;41.27;102571.94;4930083;28;124734;-72
2021/03/16 06:02:55;;;;;;;8.13;2.75;;;;;;;15.75;41.20;102578.13;4930678;28;114911;-72
2021/03/16 06:05:40;;;;;;;11.10;2.08;;;;;;;15.76;41.00;102579.88;4931606;28;114594;-72
2021/03/16 06:08:24;;;;;;;8.55;2.20;;;;;;;15.77;41.09;102588.69;4929423;28;124595;-74
2021/03/16 06:11:10;;;;;;;7.30;2.40;;;;;;;15.76;41.39;102589.59;4941876;28;124823;-73
2021/03/16 06:13:56;;;;;;;8.70;2.30;;;;;;;15.77;41.03;102588.69;4950296;28;115036;-73
2021/03/16 06:16:41;;;;;;;8.50;2.47;;;;;;;15.77;41.07;102589.56;4950494;28;114710;-73
2021/03/16 06:19:28;;;;;;;6.95;2.63;;;;;;;15.77;41.41;102591.34;4948881;28;124995;-74
2021/03/16 06:22:18;;;;;;;9.68;2.30;;;;;;;15.78;41.12;102591.31;4948884;28;124708;-73
2021/03/16 06:25:03;;;;;;;9.00;2.67;;;;;;;15.79;41.18;102595.69;4949447;28;114856;-74
2021/03/16 06:27:58;;;;;;;10.55;2.85;;;;;;;15.78;41.18;102588.66;4949979;28;115185;-73
2021/03/16 06:30:43;;;;;;;8.18;2.40;;;;;;;15.80;41.17;102596.56;4951813;28;125123;-75
2021/03/16 06:33:29;;;;;;;6.63;2.35;;;;;;;15.80;41.21;102594.78;4937809;28;124657;-73
2021/03/16 06:36:15;;;;;;;9.43;2.08;;;;;;;15.80;41.11;102596.56;4928911;28;115993;-73
2021/03/16 06:39:02;;;;;;;8.13;2.35;;;;;;;15.81;41.19;102601.84;4933336;28;115210;-75
2021/03/16 06:41:47;;;;;;;5.57;2.30;;;;;;;15.81;41.40;102596.53;4927905;28;124906;-73
2021/03/16 06:44:31;;;;;;;6.63;2.10;;;;;;;15.83;41.25;102599.16;4930577;28;124839;-76
2021/03/16 06:47:16;;;;;;;7.35;2.45;;;;;;;15.83;41.32;102600.03;4930898;28;115044;-74
2021/03/16 06:50:00;;;;;;;8.52;2.40;;;;;;;15.82;41.29;102606.22;4926520;28;114798;-73
2021/03/16 06:52:49;;;;;;;8.98;2.78;;;;;;;15.82;41.33;102595.63;4913762;28;125543;-72
2021/03/16 06:55:34;;;;;;;8.07;2.28;;;;;;;15.82;41.24;102593.00;4915329;28;124609;-73
2021/03/16 06:58:27;;;;;;;9.43;2.05;;;;;;;15.82;41.38;102593.00;4933427;28;114977;-73
2021/03/16 07:01:16;;;;;;;7.82;2.70;;;;;;;15.84;41.90;102599.13;4942396;28;114798;-73
2021/03/16 07:04:24;;;;;;;12.50;2.25;;;;;;;15.87;41.64;102608.81;4932480;28;124732;-73
2021/03/16 07:07:11;;;;;;;8.50;1.77;;;;;;;15.87;41.66;102603.53;4931795;28;125084;-73
2021/03/16 07:09:56;;;;;;;11.80;2.55;;;;;;;15.87;41.60;102608.81;4931449;28;115392;-73
2021/03/16 07:12:42;;;;;;;11.13;2.53;;;;;;;15.85;41.50;102598.22;4932150;28;114519;-73
2021/03/16 07:15:27;;;;;;;6.68;2.80;;;;;;;15.86;41.49;102602.66;4931418;28;124645;-73
2021/03/16 07:18:12;;;;;;;6.85;2.30;;;;;;;15.87;41.57;102604.38;4942347;28;125171;-74
2021/03/16 07:20:58;;;;;;;6.22;1.98;;;;;;;15.87;41.39;102608.81;4942392;28;114857;-74
2021/03/16 07:24:10;;;;;;;8.88;2.63;;;;;;;15.88;41.48;102606.13;4938117;28;114318;-74
2021/03/16 07:26:55;;;;;;;14.02;2.90;;;;;;;15.89;41.49;102604.38;4952030;28;124795;-74
2021/03/16 07:29:40;;;;;;;6.20;2.67;;;;;;;15.90;41.51;102624.63;4952590;28;124788;-73
2021/03/16 07:32:26;;;;;;;11.65;2.78;;;;;;;15.92;41.34;102626.34;4913493;28;116110;-74
2021/03/16 07:35:12;;;;;;;8.18;2.50;;;;;;;15.92;41.29;102617.53;4914097;28;115669;-74
2021/03/16 07:38:00;;;;;;;5.28;2.10;;;;;;;15.91;41.56;102618.44;4912540;28;125025;-74
2021/03/16 07:40:45;;;;;;;9.02;2.35;;;;;;;15.91;41.26;102623.75;4914143;28;124966;-74
2021/03/16 07:43:36;;;;;;;6.68;2.42;;;;;;;15.91;41.37;102623.75;4912641;28;114951;-75
2021/03/16 07:46:20;;;;;;;7.70;2.15;;;;;;;15.90;41.32;102636.09;4928007;28;114631;-74
2021/03/16 07:49:05;;;;;;;11.45;2.10;;;;;;;15.91;41.12;102637.84;4929639;28;124991;-75
2021/03/16 07:51:50;;;;;;;9.98;2.67;;;;;;;15.92;41.02;102626.34;4947727;28;125325;-74
2021/03/16 07:54:37;;;;;;;9.88;2.88;;;;;;;15.92;41.14;102625.47;4919837;28;115294;-74
2021/03/16 07:57:30;;;;;;;6.55;2.05;;;;;;;15.93;41.16;102627.22;4938772;28;114393;-75
2021/03/16 08:00:16;;;;;;;6.63;2.40;;;;;;;15.93;41.05;102636.03;4941826;28;125425;-75
2021/03/16 08:03:02;;;;;;;10.55;2.85;;;;;;;15.94;41.00;102629.84;4937671;28;125243;-76
2021/03/16 08:05:47;;;;;;;10.35;2.75;;;;;;;15.94;41.04;102635.13;4938176;28;115239;-76
2021/03/16 08:08:39;;;;;;;8.23;2.55;;;;;;;15.94;41.11;102640.44;4939225;28;114588;-77
2021/03/16 08:11:38;;;;;;;10.35;2.72;;;;;;;15.96;41.17;102646.56;4945792;28;124807;-77
2021/03/16 08:14:28;;;;;;;9.40;2.80;;;;;;;15.95;41.19;102644.81;4950557;28;125158;-75
2021/03/16 08:17:24;;;;;;;10.13;2.28;;;;;;;15.95;40.99;102643.97;4948669;28;114910;-74
2021/03/16 08:20:21;;;;;;;10.45;2.78;;;;;;;15.97;40.85;102650.13;4952043;28;114496;-77
2021/03/16 08:23:13;;;;;;;6.28;2.70;;;;;;;16.00;41.09;102648.28;4950167;28;124743;-74
2021/03/16 08:25:59;;;;;;;5.70;2.30;;;;;;;15.99;41.05;102654.50;4953353;28;125247;-74
2021/03/16 08:28:48;;;;;;;8.73;3.08;;;;;;;16.00;41.34;102650.94;4950996;28;116206;-73
2021/03/16 08:31:33;;;;;;;6.93;2.45;;;;;;;16.01;41.45;102641.22;4932221;28;115631;-73
2021/03/16 08:34:20;;;;;;;8.73;3.10;;;;;;;16.00;41.41;102645.63;4930853;28;125137;-72
2021/03/16 08:37:05;;;;;;;9.65;2.72;;;;;;;16.02;41.74;102640.31;4931687;28;125213;-74
2021/03/16 08:39:51;;;;;;;18.23;3.65;;;;;;;16.02;43.00;102649.13;4932344;28;114721;-73
2021/03/16 08:42:35;;;;;;;23.70;5.05;;;;;;;16.11;46.11;102641.94;4949884;28;114477;-73
2021/03/16 08:45:28;;;;;;;21.73;4.95;;;;;;;16.13;44.96;102637.47;4950448;28;125330;-73
2021/03/16 08:48:23;;;;;;;22.38;4.20;;;;;;;16.19;47.93;102635.56;4939507;28;124662;-74
2021/03/16 08:51:07;;;;;;;19.75;4.47;;;;;;;16.23;46.68;102639.06;4934246;28;114981;-72
2021/03/16 08:53:52;;;;;;;20.80;4.30;;;;;;;16.23;46.18;102649.66;4922042;28;114941;-73
2021/03/16 08:56:37;;;;;;;21.40;3.83;;;;;;;16.24;45.54;102648.75;4938802;28;124963;-72
2021/03/16 08:59:22;;;;;;;19.10;4.22;;;;;;;16.27;45.53;102654.00;4949713;28;124739;-72
2021/03/16 09:02:07;;;;;;;13.32;3.45;;;;;;;16.30;44.94;102652.16;4952850;28;115353;-73
2021/03/16 09:04:51;;;;;;;16.42;3.22;;;;;;;16.30;44.66;102645.97;4951083;28;114676;-74
2021/03/16 09:07:36;;;;;;;11.30;2.92;;;;;;;16.30;44.44;102652.16;4948912;28;124821;-72
2021/03/16 09:10:21;;;;;;;9.32;3.35;;;;;;;16.32;44.35;102644.19;4940881;28;124599;-73
2021/03/16 09:13:06;;;;;;;10.20;2.78;;;;;;;16.33;44.21;102650.38;4952252;28;115296;-71
2021/03/16 09:15:51;;;;;;;11.95;2.88;;;;;;;16.35;43.74;102648.56;4942831;28;114567;-71
2021/03/16 09:18:35;;;;;;;13.57;3.33;;;;;;;16.36;43.84;102653.81;4932617;28;125017;-71
2021/03/16 09:21:19;;;;;;;11.90;3.28;;;;;;;16.37;43.62;102646.75;4929603;28;125298;-72
2021/03/16 09:24:05;;;;;;;9.85;2.88;;;;;;;16.38;43.50;102653.78;4932729;28;116116;-72
2021/03/16 09:26:55;;;;;;;13.30;2.70;;;;;;;16.37;43.43;102647.63;4933436;28;115759;-72
2021/03/16 09:29:39;;;;;;;5.75;2.55;;;;;;;16.39;43.09;102642.28;4949651;28;124865;-71
2021/03/16 09:32:24;;;;;;;7.70;2.53;;;;;;;16.41;43.05;102638.69;4951988;28;124624;-71
2021/03/16 09:35:13;;;;;;;8.52;2.45;;;;;;;16.41;42.87;102636.06;4952079;28;114963;-70
2021/03/16 09:37:59;;;;;;;10.73;3.25;;;;;;;16.42;42.90;102631.63;4946258;28;115140;-77
2021/03/16 09:40:31;;;;;;;8.48;2.65;;;;;;;16.44;42.69;102635.16;4931438;28;125064;-73
2021/03/16 09:43:00;;;;;;;9.13;2.15;;;;;;;16.44;42.72;102632.50;4929322;28;123290;-74
2021/03/16 09:45:29;;;;;;;7.43;3.10;;;;;;;16.44;42.72;102638.66;4929633;28;114892;-74
2021/03/16 09:47:57;;;;;;;7.03;2.10;;;;;;;16.47;42.36;102621.81;4921415;28;113992;-74
2021/03/16 09:50:36;;;;;;;7.90;2.78;;;;;;;16.46;42.60;102626.25;4948669;28;122906;-73
2021/03/16 09:53:05;;;;;;;6.47;2.35;;;;;;;16.45;42.45;102627.16;4949414;28;124473;-72
2021/03/16 09:55:31;;;;;;;7.15;2.45;;;;;;;16.47;42.27;102628.00;4936494;28;114268;-75
2021/03/16 09:57:58;;;;;;;6.80;2.17;;;;;;;16.47;42.33;102628.00;4917323;28;114243;-73
2021/03/16 10:00:26;;;;;;;7.38;2.42;;;;;;;16.45;42.38;102632.47;4932530;28;124756;-74
2021/03/16 10:03:05;;;;;;;9.13;3.13;;;;;;;16.43;42.23;102622.81;4952172;28;124370;-73
2021/03/16 10:05:31;;;;;;;3.97;2.10;;;;;;;16.43;42.26;102621.03;4938082;28;114539;-72
2021/03/16 10:07:57;;;;;;;3.58;2.00;;;;;;;16.44;42.30;102616.59;4935020;28;114212;-73
2021/03/16 10:10:25;;;;;;;6.20;2.33;;;;;;;16.45;42.43;102621.00;4940388;28;124232;-72
2021/03/16 10:13:02;;;;;;;5.75;1.90;;;;;;;16.43;42.53;102615.72;4920133;28;123629;-75
2021/03/16 10:15:30;;;;;;;8.80;2.38;;;;;;;16.43;42.56;102621.03;4922815;28;116183;-72
2021/03/16 10:18:02;;;;;;;7.45;2.75;;;;;;;16.41;42.67;102620.16;4935509;28;115236;-71
2021/03/16 10:20:31;;;;;;;6.07;2.22;;;;;;;16.42;42.66;102618.38;4932974;28;123950;-69
2021/03/16 10:23:00;;;;;;;4.93;2.28;;;;;;;16.42;42.80;102616.63;4933976;28;124454;-70
2021/03/16 10:25:30;;;;;;;5.32;2.20;;;;;;;16.44;42.88;102613.94;4935654;28;114426;-71
2021/03/16 10:28:02;;;;;;;17.65;3.10;;;;;;;16.59;42.95;102609.19;4934930;28;114608;-70
2021/03/16 10:30:42;;;;;;;13.13;2.33;;;;;;;16.49;43.24;102604.97;4946302;28;124347;-69
2021/03/16 10:33:11;;;;;;;12.80;2.45;;;;;;;16.49;43.12;102599.69;4952320;28;124496;-69
2021/03/16 10:35:38;;;;;;;9.82;2.63;;;;;;;16.52;43.20;102609.34;4934647;28;114492;-76
2021/03/16 10:38:06;;;;;;;8.45;2.40;;;;;;;16.52;43.18;102602.25;4930824;28;114516;-75
2021/03/16 10:40:34;;;;;;;6.00;2.20;;;;;;;16.53;43.17;102604.00;4935946;28;125007;-75
2021/03/16 10:43:00;;;;;;;7.97;2.05;;;;;;;16.52;43.13;102599.59;4939355;28;122865;-75
2021/03/16 10:45:27;;;;;;;9.27;2.35;;;;;;;16.55;43.12;102604.88;4929624;28;114571;-72
2021/03/16 10:47:54;;;;;;;5.60;2.30;;;;;;;16.58;42.92;102604.81;4934353;28;113520;-75
2021/03/16 10:50:21;;;;;;;4.13;1.73;;;;;;;16.57;42.97;102608.38;4942573;28;124391;-75
2021/03/16 10:52:47;;;;;;;6.05;1.98;;;;;;;16.59;43.04;102600.38;4934400;28;123504;-70
2021/03/16 10:55:14;;;;;;;7.88;2.05;;;;;;;16.60;42.77;102602.13;4927815;28;114192;-75
2021/03/16 10:57:40;;;;;;;8.05;2.30;;;;;;;16.61;42.60;102598.56;4931189;28;113800;-69
2021/03/16 11:00:08;;;;;;;5.25;2.22;;;;;;;16.62;42.71;102591.47;4927443;28;124714;-73
2021/03/16 11:02:35;;;;;;;4.80;2.03;;;;;;;16.64;42.47;102602.91;4934427;28;124941;-71
2021/03/16 11:05:02;;;;;;;5.18;1.90;;;;;;;16.64;42.67;102601.13;4933787;28;115471;-72
2021/03/16 11:07:28;;;;;;;6.55;1.80;;;;;;;16.65;42.35;102588.75;4934291;28;114322;-71
2021/03/16 11:09:54;;;;;;;3.72;1.92;;;;;;;16.66;42.37;102596.69;4931831;28;123122;-73
2021/03/16 11:12:20;;;;;;;4.80;1.85;;;;;;;16.65;42.58;102586.09;4951209;28;123743;-73
2021/03/16 11:14:47;;;;;;;2.90;1.70;;;;;;;16.66;42.42;102585.22;4951163;28;114157;-73
2021/03/16 11:17:13;;;;;;;5.90;2.22;;;;;;;16.70;42.30;102586.94;4944530;28;114067;-73
2021/03/16 11:19:39;;;;;;;4.40;1.55;;;;;;;16.69;42.40;102583.41;4947712;28;124099;-70
2021/03/16 11:22:05;;;;;;;3.58;1.48;;;;;;;16.71;42.39;102580.72;4949867;28;123840;-72
2021/03/16 11:24:31;;;;;;;3.67;1.70;;;;;;;16.73;42.63;102582.44;4950228;28;114339;-72
2021/03/16 11:26:57;;;;;;;3.85;1.80;;;;;;;16.74;42.24;102585.94;4949680;28;114171;-71
2021/03/16 11:29:23;;;;;;;9.55;2.05;;;;;;;16.76;42.31;102576.19;4949827;28;123918;-73
2021/03/16 11:31:49;;;;;;;3.78;1.75;;;;;;;16.77;42.23;102578.81;4950177;28;123976;-73
2021/03/16 11:34:34;;;;;;;4.68;1.63;;;;;;;16.76;42.06;102569.13;4951159;28;114698;-75
2021/03/16 11:37:19;;;;;;;2.40;1.70;;;;;;;16.77;42.17;102577.94;4951322;28;114811;-70
2021/03/16 11:40:04;;;;;;;5.45;1.75;;;;;;;16.80;42.44;102567.28;4940309;28;125166;-72
2021/03/16 11:42:49;;;;;;;2.13;1.40;;;;;;;16.80;42.22;102567.28;4932038;28;124999;-75
2021/03/16 11:45:33;;;;;;;4.28;1.95;;;;;;;16.83;42.25;102567.19;4930516;28;115491;-75
2021/03/16 11:48:18;;;;;;;6.63;1.83;;;;;;;16.82;42.38;102560.16;4944329;28;114823;-76
2021/03/16 11:51:04;;;;;;;4.00;1.60;;;;;;;16.82;42.36;102560.16;4931492;28;126102;-71
2021/03/16 11:53:49;;;;;;;6.43;2.38;;;;;;;16.83;42.22;102556.59;4931584;28;124702;-71
2021/03/16 11:56:33;;;;;;;2.63;1.30;;;;;;;16.83;42.20;102560.09;4936809;28;115920;-69
2021/03/16 11:59:18;;;;;;;2.72;1.40;;;;;;;16.82;42.17;102558.38;4948887;28;116202;-69
2021/03/16 12:02:02;;;;;;;3.28;1.40;;;;;;;16.82;42.51;102555.72;4948740;28;124821;-74
2021/03/16 12:04:47;;;;;;;1.60;1.33;;;;;;;16.80;42.38;102549.59;4948876;28;124373;-70
2021/03/16 12:07:32;;;;;;;3.55;1.50;;;;;;;16.80;42.35;102551.38;4949430;28;115404;-74
2021/03/16 12:10:16;;;;;;;3.20;1.60;;;;;;;16.79;42.33;102550.50;4948045;28;114505;-75
2021/03/16 12:13:01;;;;;;;3.72;1.70;;;;;;;16.78;42.39;102547.88;4949297;28;124701;-75
2021/03/16 12:15:45;;;;;;;2.42;1.60;;;;;;;16.78;42.32;102538.16;4934045;28;124330;-72